createdAt,value
2019-05-01T00:01:00.805Z,15.93
2019-05-01T00:03:45.404Z,17.43
2019-05-01T00:06:13.184Z,16.10
2019-05-01T00:08:39.527Z,17.90
2019-05-01T00:11:05.962Z,16.10
2019-05-01T00:13:32.305Z,14.90
2019-05-01T00:15:58.615Z,14.87
2019-05-01T00:18:24.841Z,14.63
2019-05-01T00:20:51.108Z,13.13
2019-05-01T00:23:17.372Z,13.30
2019-05-01T00:25:43.727Z,13.53
2019-05-01T00:28:10.392Z,12.10
2019-05-01T00:30:36.735Z,12.23
2019-05-01T00:33:03.157Z,12.57
2019-05-01T00:35:30.042Z,12.10
2019-05-01T00:37:56.212Z,14.10
2019-05-01T00:40:22.447Z,13.67
2019-05-01T00:42:48.735Z,12.93
2019-05-01T00:45:15.101Z,14.43
2019-05-01T00:47:41.441Z,14.80
2019-05-01T00:50:07.778Z,13.93
2019-05-01T00:52:34.129Z,13.70
2019-05-01T00:55:18.862Z,13.00
2019-05-01T00:57:55.973Z,13.20
2019-05-01T01:00:24.183Z,14.00
2019-05-01T01:02:50.551Z,13.27
2019-05-01T01:05:17.787Z,13.37
2019-05-01T01:07:44.040Z,13.33
2019-05-01T01:10:10.647Z,13.43
2019-05-01T01:12:36.837Z,14.83
2019-05-01T01:15:04.169Z,14.10
2019-05-01T01:17:30.446Z,16.23
2019-05-01T01:19:56.744Z,16.27
2019-05-01T01:22:23.340Z,14.37
2019-05-01T01:24:49.810Z,15.40
2019-05-01T01:27:16.357Z,15.20
2019-05-01T01:29:42.826Z,13.97
2019-05-01T01:32:09.250Z,12.83
2019-05-01T01:34:35.606Z,12.37
2019-05-01T01:37:01.848Z,12.97
2019-05-01T01:39:28.286Z,14.17
2019-05-01T01:41:55.300Z,15.27
2019-05-01T01:44:30.303Z,15.57
2019-05-01T01:46:58.630Z,13.87
2019-05-01T01:49:24.984Z,13.67
2019-05-01T01:51:51.408Z,16.07
2019-05-01T01:54:17.866Z,15.27
2019-05-01T01:56:44.207Z,15.80
2019-05-01T01:59:10.531Z,15.87
2019-05-01T02:01:38.827Z,14.23
2019-05-01T02:04:12.680Z,16.33
2019-05-01T02:06:39.024Z,15.03
2019-05-01T02:09:06.592Z,14.73
2019-05-01T02:11:33.057Z,14.10
2019-05-01T02:13:59.486Z,15.50
2019-05-01T02:16:26.046Z,15.10
2019-05-01T02:18:52.432Z,14.10
2019-05-01T02:21:18.796Z,14.07
2019-05-01T02:23:45.026Z,13.37
2019-05-01T02:26:14.021Z,13.60
2019-05-01T02:28:48.433Z,14.77
2019-05-01T02:31:28.345Z,12.70
2019-05-01T02:33:49.618Z,13.07
2019-05-01T02:36:17.373Z,12.67
2019-05-01T02:38:44.934Z,14.03
2019-05-01T02:41:13.074Z,14.53
2019-05-01T02:43:42.455Z,14.67
2019-05-01T02:46:10.581Z,15.03
2019-05-01T02:48:40.642Z,15.30
2019-05-01T02:51:07.679Z,13.83
2019-05-01T02:53:37.760Z,14.47
2019-05-01T02:56:20.012Z,15.53
2019-05-01T02:58:49.484Z,15.37
2019-05-01T03:01:16.024Z,15.83
2019-05-01T03:03:42.339Z,16.63
2019-05-01T03:06:08.829Z,15.33
2019-05-01T03:08:36.564Z,16.53
2019-05-01T03:11:03.087Z,15.07
2019-05-01T03:13:29.749Z,15.90
2019-05-01T03:15:56.169Z,15.97
2019-05-01T03:18:33.345Z,15.00
2019-05-01T03:21:10.411Z,15.27
2019-05-01T03:23:39.260Z,15.80
2019-05-01T03:26:05.815Z,14.43
2019-05-01T03:28:32.435Z,15.30
2019-05-01T03:30:58.782Z,15.20
2019-05-01T03:33:25.229Z,15.27
2019-05-01T03:35:52.934Z,15.17
2019-05-01T03:38:19.249Z,17.40
2019-05-01T03:40:45.776Z,18.60
2019-05-01T03:43:12.306Z,18.97
2019-05-01T03:45:39.125Z,18.23
2019-05-01T03:48:05.723Z,17.17
2019-05-01T03:50:32.056Z,17.00
2019-05-01T03:52:58.565Z,14.87
2019-05-01T03:55:25.026Z,14.73
2019-05-01T03:57:51.599Z,16.47
2019-05-01T04:00:19.921Z,18.57
2019-05-01T04:03:04.565Z,18.37
2019-05-01T04:05:30.932Z,17.97
2019-05-01T04:07:57.375Z,17.63
2019-05-01T04:10:23.932Z,17.00
2019-05-01T04:12:50.471Z,15.53
2019-05-01T04:15:16.962Z,16.50
2019-05-01T04:17:45.472Z,17.57
2019-05-01T04:20:11.929Z,17.33
2019-05-01T04:22:45.641Z,15.87
2019-05-01T04:25:12.071Z,15.03
2019-05-01T04:27:40.396Z,15.47
2019-05-01T04:30:24.207Z,15.23
2019-05-01T04:32:53.559Z,14.77
2019-05-01T04:35:38.542Z,14.57
2019-05-01T04:38:04.966Z,14.83
2019-05-01T04:40:31.305Z,18.23
2019-05-01T04:42:57.689Z,15.27
2019-05-01T04:45:24.369Z,18.10
2019-05-01T04:47:50.991Z,18.80
2019-05-01T04:50:17.470Z,18.37
2019-05-01T04:52:44.357Z,16.47
2019-05-01T04:55:10.989Z,15.43
2019-05-01T04:57:37.754Z,15.53
2019-05-01T05:00:07.300Z,15.17
2019-05-01T05:02:36.199Z,14.83
2019-05-01T05:05:04.546Z,14.43
2019-05-01T05:07:31.184Z,16.20
2019-05-01T05:09:57.651Z,16.10
2019-05-01T05:12:29.107Z,16.17
2019-05-01T05:14:57.866Z,18.63
2019-05-01T05:17:29.934Z,16.77
2019-05-01T05:19:56.252Z,15.67
2019-05-01T05:22:23.158Z,15.37
2019-05-01T05:24:50.143Z,14.13
2019-05-01T05:27:17.047Z,14.77
2019-05-01T05:29:44.737Z,13.87
2019-05-01T05:32:13.068Z,22.60
2019-05-01T05:34:41.598Z,19.90
2019-05-01T05:37:15.815Z,19.37
2019-05-01T05:39:47.131Z,19.17
2019-05-01T05:42:13.718Z,19.17
2019-05-01T05:44:40.893Z,16.00
2019-05-01T05:47:08.493Z,16.97
2019-05-01T05:49:35.047Z,14.80
2019-05-01T05:52:13.081Z,15.00
2019-05-01T05:54:47.168Z,13.30
2019-05-01T05:57:18.633Z,12.90
2019-05-01T05:59:58.551Z,13.43
2019-05-01T06:02:33.418Z,13.13
2019-05-01T06:05:18.719Z,12.67
2019-05-01T06:08:06.663Z,11.60
2019-05-01T06:10:35.649Z,10.93
2019-05-01T06:13:13.074Z,11.87
2019-05-01T06:15:42.743Z,12.40
2019-05-01T06:18:14.003Z,11.60
2019-05-01T06:20:42.571Z,17.97
2019-05-01T06:23:15.857Z,15.37
2019-05-01T06:25:47.113Z,12.63
2019-05-01T06:28:14.409Z,12.70
2019-05-01T06:30:42.115Z,10.93
2019-05-01T06:33:09.734Z,13.53
2019-05-01T06:35:38.090Z,14.40
2019-05-01T06:38:12.300Z,13.73
2019-05-01T06:40:39.883Z,18.07
2019-05-01T06:43:11.025Z,18.70
2019-05-01T06:45:39.528Z,17.87
2019-05-01T06:48:17.765Z,17.47
2019-05-01T06:50:50.375Z,16.67
2019-05-01T06:53:17.292Z,15.30
2019-05-01T06:55:43.846Z,16.13
2019-05-01T06:58:10.398Z,16.93
2019-05-01T07:00:39.160Z,18.17
2019-05-01T07:03:10.057Z,16.27
2019-05-01T07:05:36.498Z,19.37
2019-05-01T07:08:03.274Z,17.57
2019-05-01T07:10:42.461Z,15.63
2019-05-01T07:13:04.786Z,16.35
2019-05-01T07:15:30.421Z,14.93
2019-05-01T07:17:57.433Z,13.08
2019-05-01T07:20:25.702Z,12.15
2019-05-01T07:22:53.264Z,12.15
2019-05-01T07:25:19.962Z,13.13
2019-05-01T07:27:46.555Z,18.05
2019-05-01T07:30:19.695Z,13.85
2019-05-01T07:32:45.406Z,16.15
2019-05-01T07:35:11.872Z,16.77
2019-05-01T07:37:38.398Z,14.87
2019-05-01T07:40:05.250Z,15.65
2019-05-01T07:42:39.416Z,14.25
2019-05-01T07:45:26.378Z,19.25
2019-05-01T07:47:53.432Z,18.90
2019-05-01T07:50:24.315Z,19.87
2019-05-01T07:52:52.261Z,19.65
2019-05-01T07:55:20.071Z,22.22
2019-05-01T07:57:49.214Z,19.12
2019-05-01T08:00:29.863Z,18.15
2019-05-01T08:02:56.376Z,19.95
2019-05-01T08:05:23.017Z,22.07
2019-05-01T08:07:49.403Z,21.80
2019-05-01T08:10:15.955Z,22.37
2019-05-01T08:12:45.026Z,20.45
2019-05-01T08:15:12.050Z,20.08
2019-05-01T08:17:40.348Z,22.40
2019-05-01T08:20:17.787Z,20.45
2019-05-01T08:22:52.111Z,19.19
2019-05-01T08:25:18.729Z,18.87
2019-05-01T08:27:58.010Z,21.10
2019-05-01T08:30:26.393Z,20.50
2019-05-01T08:33:04.014Z,17.75
2019-05-01T08:35:31.693Z,17.95
2019-05-01T08:38:00.336Z,17.37
2019-05-01T08:40:26.778Z,17.00
2019-05-01T08:42:52.955Z,19.73
2019-05-01T08:45:21.308Z,20.20
2019-05-01T08:48:01.591Z,17.10
2019-05-01T08:50:31.043Z,18.75
2019-05-01T08:52:57.636Z,17.67
2019-05-01T08:55:24.118Z,15.35
2019-05-01T08:57:50.617Z,12.82
2019-05-01T09:00:17.510Z,12.65
2019-05-01T09:02:44.164Z,10.82
2019-05-01T09:05:27.585Z,9.83
2019-05-01T09:07:41.746Z,8.58
2019-05-01T09:10:09.350Z,11.03
2019-05-01T09:12:35.699Z,15.72
2019-05-01T09:15:07.148Z,13.00
2019-05-01T09:17:32.728Z,12.68
2019-05-01T09:20:01.947Z,12.07
2019-05-01T09:25:46.420Z,9.90
2019-05-01T09:28:14.932Z,9.88
2019-05-01T09:30:49.338Z,11.35
2019-05-01T09:33:15.881Z,10.82
2019-05-01T09:35:45.633Z,8.70
2019-05-01T09:38:11.758Z,10.30
2019-05-01T09:40:38.154Z,8.23
2019-05-01T09:43:04.605Z,8.03
2019-05-01T09:45:30.962Z,10.32
2019-05-01T09:47:57.301Z,9.38
2019-05-01T09:50:25.909Z,9.90
2019-05-01T09:53:00.981Z,11.75
2019-05-01T09:55:32.340Z,9.78
2019-05-01T09:57:58.614Z,10.20
2019-05-01T10:00:26.948Z,8.10
2019-05-01T10:02:54.683Z,10.05
2019-05-01T10:05:28.753Z,11.25
2019-05-01T10:07:49.548Z,10.03
2019-05-01T10:10:16.046Z,8.88
2019-05-01T10:12:47.086Z,10.28
2019-05-01T10:15:11.231Z,10.25
2019-05-01T10:17:37.647Z,9.75
2019-05-01T10:20:05.207Z,11.15
2019-05-01T10:22:57.547Z,10.78
2019-05-01T10:25:53.477Z,9.85
2019-05-01T10:28:20.549Z,9.83
2019-05-01T10:30:54.677Z,9.83
2019-05-01T10:33:38.197Z,9.18
2019-05-01T10:39:35.911Z,10.23
2019-05-01T10:44:51.751Z,13.05
2019-05-01T10:47:18.154Z,12.93
2019-05-01T10:50:10.617Z,14.40
2019-05-01T10:52:32.406Z,11.75
2019-05-01T10:54:58.695Z,13.13
2019-05-01T10:57:40.131Z,10.17
2019-05-01T11:00:07.523Z,9.20
2019-05-01T11:02:33.848Z,9.65
2019-05-01T11:05:00.220Z,8.60
2019-05-01T11:07:26.867Z,7.87
2019-05-01T11:12:46.160Z,9.35
2019-05-01T11:15:14.074Z,8.55
2019-05-01T11:17:40.391Z,7.80
2019-05-01T11:20:07.063Z,8.25
2019-05-01T11:25:50.603Z,8.80
2019-05-01T11:28:44.095Z,7.50
2019-05-01T11:31:12.419Z,8.98
2019-05-01T11:33:55.943Z,8.88
2019-05-01T11:36:36.144Z,10.40
2019-05-01T11:39:24.146Z,9.18
2019-05-01T11:42:07.547Z,8.03
2019-05-01T11:44:33.763Z,7.05
2019-05-01T11:47:13.815Z,6.30
2019-05-01T11:49:45.651Z,8.75
2019-05-01T11:52:19.354Z,9.20
2019-05-01T11:54:47.086Z,7.85
2019-05-01T11:57:22.830Z,9.58
2019-05-01T11:59:49.184Z,7.92
2019-05-01T12:02:15.410Z,7.35
2019-05-01T12:04:41.862Z,6.65
2019-05-01T12:07:08.151Z,7.25
2019-05-01T12:09:34.647Z,8.25
2019-05-01T12:12:05.515Z,8.90
2019-05-01T12:14:31.782Z,9.15
2019-05-01T12:17:09.043Z,7.72
2019-05-01T12:19:35.357Z,10.68
2019-05-01T12:22:01.606Z,9.15
2019-05-01T12:24:27.944Z,7.05
2019-05-01T12:26:54.204Z,8.05
2019-05-01T12:29:20.667Z,6.47
2019-05-01T12:31:46.959Z,5.95
2019-05-01T12:34:13.482Z,7.20
2019-05-01T12:36:40.918Z,6.42
2019-05-01T12:39:09.455Z,5.85
2019-05-01T12:41:38.215Z,5.60
2019-05-01T12:44:04.471Z,6.12
2019-05-01T12:46:35.628Z,6.03
2019-05-01T12:49:01.969Z,6.75
2019-05-01T12:51:28.218Z,5.20
2019-05-01T12:53:56.520Z,5.60
2019-05-01T12:56:27.611Z,6.42
2019-05-01T12:58:55.930Z,5.78
2019-05-01T13:01:22.081Z,5.83
2019-05-01T13:03:48.334Z,5.97
2019-05-01T13:06:14.688Z,5.50
2019-05-01T13:08:41.550Z,5.53
2019-05-01T13:11:07.869Z,5.40
2019-05-01T13:13:34.111Z,5.40
2019-05-01T13:16:00.981Z,6.17
2019-05-01T13:18:27.308Z,6.08
2019-05-01T13:20:55.551Z,7.45
2019-05-01T13:23:21.937Z,9.05
2019-05-01T13:25:49.179Z,8.58
2019-05-01T13:28:17.445Z,8.78
2019-05-01T13:30:45.778Z,8.08
2019-05-01T13:33:12.141Z,6.60
2019-05-01T13:35:38.440Z,7.05
2019-05-01T13:38:04.962Z,8.43
2019-05-01T13:40:31.214Z,8.45
2019-05-01T13:42:57.574Z,8.00
2019-05-01T13:45:23.816Z,6.85
2019-05-01T13:47:50.320Z,8.75
2019-05-01T13:50:16.867Z,7.87
2019-05-01T13:52:43.207Z,6.15
2019-05-01T13:55:09.759Z,6.53
2019-05-01T13:57:35.922Z,7.95
2019-05-01T14:00:05.182Z,8.15
2019-05-01T14:02:31.463Z,7.17
2019-05-01T14:04:57.674Z,6.72
2019-05-01T14:07:23.840Z,7.15
2019-05-01T14:09:50.125Z,6.03
2019-05-01T14:12:16.391Z,6.05
2019-05-01T14:14:42.619Z,7.67
2019-05-01T14:17:09.008Z,5.95
2019-05-01T14:19:37.487Z,6.42
2019-05-01T14:22:17.617Z,6.90
2019-05-01T14:24:45.853Z,6.15
2019-05-01T14:27:12.112Z,7.90
2019-05-01T14:29:38.343Z,5.33
2019-05-01T14:32:04.764Z,5.40
2019-05-01T14:34:31.016Z,5.95
2019-05-01T14:36:57.259Z,5.80
2019-05-01T14:39:23.531Z,6.25
2019-05-01T14:41:50.077Z,6.40
2019-05-01T14:44:16.358Z,5.97
2019-05-01T14:46:42.711Z,5.58
2019-05-01T14:49:09.085Z,5.95
2019-05-01T14:51:35.613Z,5.40
2019-05-01T14:54:01.924Z,5.42
2019-05-01T14:56:28.213Z,5.03
2019-05-01T14:58:54.418Z,5.35
2019-05-01T15:01:20.578Z,5.92
2019-05-01T15:03:46.690Z,5.22
2019-05-01T15:06:12.992Z,5.35
2019-05-01T15:08:39.410Z,5.55
2019-05-01T15:11:05.575Z,5.12
2019-05-01T15:13:36.734Z,5.35
2019-05-01T15:16:08.026Z,4.87
2019-05-01T15:18:36.340Z,5.65
2019-05-01T15:21:02.739Z,5.55
2019-05-01T15:23:28.966Z,5.55
2019-05-01T15:25:55.206Z,5.50
2019-05-01T15:28:21.575Z,5.37
2019-05-01T15:30:48.044Z,5.08
2019-05-01T15:33:14.905Z,4.90
2019-05-01T15:35:41.638Z,4.50
2019-05-01T15:38:13.334Z,5.50
2019-05-01T15:41:21.339Z,5.33
2019-05-01T15:44:04.778Z,5.60
2019-05-01T15:46:31.924Z,5.10
2019-05-01T15:48:58.149Z,5.10
2019-05-01T15:51:24.531Z,5.90
2019-05-01T15:53:50.862Z,4.58
2019-05-01T15:56:17.132Z,5.90
2019-05-01T15:58:43.437Z,7.17
2019-05-01T16:01:09.880Z,6.78
2019-05-01T16:03:36.783Z,5.03
2019-05-01T16:06:03.171Z,5.45
2019-05-01T16:08:29.480Z,5.72
2019-05-01T16:10:57.615Z,5.10
2019-05-01T16:13:23.949Z,4.50
2019-05-01T16:15:50.218Z,4.53
2019-05-01T16:18:16.364Z,3.80
2019-05-01T16:20:42.636Z,3.95
2019-05-01T16:23:08.975Z,4.00
2019-05-01T16:25:35.328Z,4.75
2019-05-01T16:28:01.557Z,9.30
2019-05-01T16:30:27.790Z,6.72
2019-05-01T16:32:54.148Z,7.12
2019-05-01T16:35:20.383Z,6.15
2019-05-01T16:37:46.919Z,5.85
2019-05-01T16:40:15.261Z,6.83
2019-05-01T16:42:41.717Z,5.80
2019-05-01T16:45:08.363Z,6.78
2019-05-01T16:47:34.595Z,6.95
2019-05-01T16:50:00.742Z,5.37
2019-05-01T16:52:29.010Z,5.72
2019-05-01T16:54:59.343Z,6.72
2019-05-01T16:57:23.651Z,6.53
2019-05-01T16:59:49.768Z,5.92
2019-05-01T17:02:20.893Z,9.35
2019-05-01T17:04:57.876Z,8.28
2019-05-01T17:07:42.882Z,8.43
2019-05-01T17:10:17.339Z,5.65
2019-05-01T17:12:48.072Z,6.28
2019-05-01T17:15:16.918Z,5.17
2019-05-01T17:17:43.942Z,5.55
2019-05-01T17:20:10.417Z,6.30
2019-05-01T17:22:36.944Z,6.20
2019-05-01T17:25:05.893Z,5.67
2019-05-01T17:27:32.171Z,5.83
2019-05-01T17:29:58.418Z,6.55
2019-05-01T17:32:24.754Z,7.70
2019-05-01T17:34:51.071Z,7.15
2019-05-01T17:37:17.296Z,7.60
2019-05-01T17:39:43.550Z,7.25
2019-05-01T17:42:09.817Z,5.83
2019-05-01T17:44:36.065Z,7.42
2019-05-01T17:47:02.582Z,5.85
2019-05-01T17:49:28.941Z,7.00
2019-05-01T17:51:55.255Z,6.60
2019-05-01T17:54:21.476Z,6.58
2019-05-01T17:56:48.496Z,5.40
2019-05-01T17:59:15.743Z,5.40
2019-05-01T18:01:46.875Z,4.87
2019-05-01T18:04:24.274Z,5.05
2019-05-01T18:06:51.565Z,5.53
2019-05-01T18:09:18.237Z,6.03
2019-05-01T18:11:47.244Z,4.53
2019-05-01T18:14:12.806Z,4.80
2019-05-01T18:16:38.911Z,4.12
2019-05-01T18:19:09.627Z,4.87
2019-05-01T18:21:38.358Z,4.50
2019-05-01T18:24:28.758Z,4.58
2019-05-01T18:27:03.093Z,4.95
2019-05-01T18:29:48.864Z,4.20
2019-05-01T18:32:28.825Z,4.85
2019-05-01T18:34:57.583Z,4.81
2019-05-01T18:37:25.944Z,4.37
2019-05-01T18:39:52.213Z,4.67
2019-05-01T18:42:19.562Z,4.47
2019-05-01T18:44:47.606Z,4.40
2019-05-01T18:47:14.219Z,4.72
2019-05-01T18:49:40.847Z,4.55
2019-05-01T18:52:08.291Z,4.67
2019-05-01T18:54:36.204Z,4.85
2019-05-01T18:57:03.214Z,4.67
2019-05-01T18:59:29.495Z,4.50
2019-05-01T19:01:56.114Z,4.55
2019-05-01T19:04:23.509Z,4.58
2019-05-01T19:06:50.827Z,5.10
2019-05-01T19:09:29.351Z,4.70
2019-05-01T19:11:45.548Z,4.80
2019-05-01T19:14:12.117Z,4.95
2019-05-01T19:16:44.624Z,4.30
2019-05-01T19:19:07.141Z,5.08
2019-05-01T19:21:35.102Z,5.15
2019-05-01T19:24:02.798Z,5.03
2019-05-01T19:26:30.418Z,4.58
2019-05-01T19:28:57.098Z,5.90
2019-05-01T19:31:23.748Z,5.80
2019-05-01T19:33:49.963Z,5.25
2019-05-01T19:36:16.420Z,5.20
2019-05-01T19:38:42.753Z,4.80
2019-05-01T19:41:13.932Z,4.78
2019-05-01T19:43:40.397Z,4.70
2019-05-01T19:46:05.775Z,5.20
2019-05-01T19:48:32.288Z,5.15
2019-05-01T19:50:58.696Z,5.30
2019-05-01T19:53:25.223Z,5.00
2019-05-01T19:55:52.165Z,5.22
2019-05-01T19:58:19.649Z,4.47
2019-05-01T20:00:50.235Z,5.33
2019-05-01T20:03:16.643Z,4.92
2019-05-01T20:05:42.885Z,4.78
2019-05-01T20:08:09.392Z,4.30
2019-05-01T20:10:35.567Z,4.70
2019-05-01T20:13:01.902Z,5.22
2019-05-01T20:15:28.323Z,5.53
2019-05-01T20:17:54.789Z,5.00
2019-05-01T20:20:21.297Z,4.90
2019-05-01T20:22:48.076Z,5.00
2019-05-01T20:25:19.395Z,5.08
2019-05-01T20:27:47.844Z,5.30
2019-05-01T20:30:12.023Z,5.87
2019-05-01T20:32:38.169Z,6.10
2019-05-01T20:35:05.030Z,5.33
2019-05-01T20:37:31.547Z,5.90
2019-05-01T20:40:10.377Z,5.60
2019-05-01T20:42:26.055Z,4.90
2019-05-01T20:45:03.998Z,5.33
2019-05-01T20:47:34.373Z,5.80
2019-05-01T20:49:48.360Z,6.60
2019-05-01T20:52:14.811Z,6.47
2019-05-01T20:54:40.959Z,6.57
2019-05-01T20:57:13.574Z,6.40
2019-05-01T20:59:39.252Z,6.43
2019-05-01T21:02:08.091Z,6.77
2019-05-01T21:04:44.330Z,6.00
2019-05-01T21:07:21.443Z,7.20
2019-05-01T21:09:56.969Z,8.27
2019-05-01T21:12:17.768Z,7.90
2019-05-01T21:14:45.252Z,7.40
2019-05-01T21:17:13.661Z,7.93
2019-05-01T21:19:40.595Z,7.93
2019-05-01T21:22:06.923Z,7.40
2019-05-01T21:24:34.089Z,7.23
2019-05-01T21:27:00.833Z,7.57
2019-05-01T21:29:27.806Z,7.90
2019-05-01T21:31:54.332Z,7.40
2019-05-01T21:34:20.799Z,7.37
2019-05-01T21:36:52.280Z,7.30
2019-05-01T21:39:17.393Z,6.97
2019-05-01T21:41:43.538Z,6.60
2019-05-01T21:44:09.748Z,6.77
2019-05-01T21:46:35.883Z,6.40
2019-05-01T21:49:02.687Z,7.27
2019-05-01T21:51:29.097Z,6.37
2019-05-01T21:53:55.239Z,6.80
2019-05-01T21:56:21.355Z,7.10
2019-05-01T21:58:48.634Z,7.13
2019-05-01T22:01:15.059Z,7.20
2019-05-01T22:03:41.286Z,7.77
2019-05-01T22:06:11.275Z,8.03
2019-05-01T22:08:39.122Z,7.00
2019-05-01T22:11:05.760Z,6.73
2019-05-01T22:13:32.277Z,6.63
2019-05-01T22:16:00.417Z,7.17
2019-05-01T22:18:31.727Z,6.50
2019-05-01T22:21:05.612Z,6.90
2019-05-01T22:23:36.831Z,6.73
2019-05-01T22:26:03.283Z,6.30
2019-05-01T22:28:31.541Z,6.17
2019-05-01T22:30:59.759Z,6.60
2019-05-01T22:33:26.258Z,6.13
2019-05-01T22:35:53.235Z,6.63
2019-05-01T22:38:19.490Z,6.30
2019-05-01T22:40:47.760Z,6.27
2019-05-01T22:43:14.479Z,6.00
2019-05-01T22:45:41.039Z,7.17
2019-05-01T22:48:07.296Z,8.27
2019-05-01T22:50:33.537Z,8.50
2019-05-01T22:52:59.853Z,8.80
2019-05-01T22:55:26.747Z,8.00
2019-05-01T22:57:53.041Z,9.03
2019-05-01T23:00:42.051Z,8.00
2019-05-01T23:03:22.119Z,7.43
2019-05-01T23:05:48.476Z,7.30
2019-05-01T23:08:15.096Z,7.20
2019-05-01T23:10:41.959Z,7.23
2019-05-01T23:13:09.397Z,7.67
2019-05-01T23:15:35.869Z,6.73
2019-05-01T23:18:02.396Z,7.77
2019-05-01T23:20:28.763Z,7.73
2019-05-01T23:22:55.108Z,7.53
2019-05-01T23:25:21.553Z,7.57
2019-05-01T23:27:47.770Z,7.70
2019-05-01T23:30:16.132Z,7.77
2019-05-01T23:32:42.706Z,7.10
2019-05-01T23:35:09.278Z,7.17
2019-05-01T23:37:35.719Z,7.17
2019-05-01T23:40:02.148Z,7.63
2019-05-01T23:42:28.588Z,7.80
2019-05-01T23:44:54.928Z,7.27
2019-05-01T23:47:21.120Z,7.83
2019-05-01T23:49:47.698Z,7.23
2019-05-01T23:52:15.539Z,7.30
2019-05-01T23:54:41.693Z,7.00
2019-05-01T23:57:07.910Z,6.63
2019-05-01T23:59:34.247Z,7.83
